Horizon — 9HYZ9 — position and weather

sailwx.info

Track history (hours):
 
Tides and Currents Weather Stations Pressure Air Temp Water Temp Dewpoint Dewpoint Depression Visibility Wind Speed Wind Dir Waves Ship Positions

Horizon

Last reported at 2017-Sep-25 13:25 UTC. Time now 2017-Sep-25 13:45 UTC.
Position N 37°27' E 025°19'.

Length 207 m; draft 7.7 m.

Type: Passenger vessel. MMSI: 249727000.

Date/timePositionNaut miles runAvg speedWind from/ knotsBaromVisibWave heightAir tempDewpointWater temp
2017-Sep-25 13:25N 37°27' E 025°19'0 0.0
2017-Sep-25 12:55N 37°27' E 025°19'0 0.0
2017-Sep-25 12:25N 37°27' E 025°19'0 0.0
2017-Sep-25 11:55N 37°27' E 025°19'0 0.0
2017-Sep-25 11:25N 37°27' E 025°19'0 0.0
2017-Sep-25 10:55N 37°27' E 025°19'0 0.0
2017-Sep-25 10:25N 37°27' E 025°19'0 0.0
2017-Sep-25 09:55N 37°27' E 025°19'0 0.0
2017-Sep-25 09:25N 37°27' E 025°19'0 0.0
2017-Sep-25 08:55N 37°27' E 025°19'0 0.0
2017-Sep-25 08:27N 37°27' E 025°19'0 0.0
2017-Sep-25 07:55N 37°27' E 025°19'0 0.0
2017-Sep-25 07:25N 37°27' E 025°19'0 0.0
2017-Sep-25 06:55N 37°27' E 025°19'0 0.0
2017-Sep-25 06:25N 37°27' E 025°19'0 0.0
2017-Sep-25 05:55N 37°27' E 025°19'0 0.1
2017-Sep-25 05:25N 37°27' E 025°19'1 2.0
2017-Sep-25 05:00N 37°27' E 025°18'713.4
2017-Sep-25 04:30N 37°27' E 025°10'714.6
2017-Sep-25 04:00N 37°20' E 025°07'815.4
2017-Sep-25 03:30N 37°16' E 024°58'815.6
2017-Sep-25 03:00N 37°12' E 024°50'55 9.9
2017-Sep-24 21:25N 37°32' E 023°45'715.7
2017-Sep-24 21:00N 37°39' E 023°43'815.9
2017-Sep-24 20:30N 37°46' E 023°39'815.3
2017-Sep-24 20:00N 37°53' E 023°37'3 6.3
2017-Sep-24 19:30N 37°56' E 023°38'0 0.0
2017-Sep-24 19:00N 37°56' E 023°38'0 0.0
2017-Sep-24 18:30N 37°56' E 023°38'0 0.0
2017-Sep-24 17:57N 37°56' E 023°38'0 0.0
2017-Sep-24 17:30N 37°56' E 023°38'0 0.0
2017-Sep-24 17:00N 37°56' E 023°38'0 0.0
2017-Sep-24 16:30N 37°56' E 023°38'0 0.0
2017-Sep-24 16:00N 37°56' E 023°38'0 0.0
2017-Sep-24 15:30N 37°56' E 023°38'0 0.0
2017-Sep-24 15:00N 37°56' E 023°38'0 0.0
2017-Sep-24 14:30N 37°56' E 023°38'0 0.0
2017-Sep-24 14:00N 37°56' E 023°38'0 0.0
2017-Sep-24 13:30N 37°56' E 023°38'0 0.0
2017-Sep-24 13:00N 37°56' E 023°38'0 0.0
2017-Sep-24 12:30N 37°56' E 023°38'0 0.0
2017-Sep-24 12:00N 37°56' E 023°38'0 0.0
2017-Sep-24 11:30N 37°56' E 023°38'0 0.0
2017-Sep-24 11:00N 37°56' E 023°38'0 0.0
2017-Sep-24 10:30N 37°56' E 023°38'0 0.0
2017-Sep-24 10:00N 37°56' E 023°38'0 0.0
2017-Sep-24 09:30N 37°56' E 023°38'0 0.0
2017-Sep-24 09:00N 37°56' E 023°38'0 0.0
2017-Sep-24 08:30N 37°56' E 023°38'0 0.0
2017-Sep-24 08:00N 37°56' E 023°38'0 0.0
2017-Sep-24 07:30N 37°56' E 023°38'0 0.0
2017-Sep-24 07:00N 37°56' E 023°38'0 0.0
2017-Sep-24 06:30N 37°56' E 023°38'0 0.0
2017-Sep-24 06:00N 37°56' E 023°38'0 0.0
2017-Sep-24 05:30N 37°56' E 023°38'0 0.0
2017-Sep-24 05:00N 37°56' E 023°38'0 0.0
2017-Sep-24 04:27N 37°56' E 023°38'0 0.0
2017-Sep-24 04:00N 37°56' E 023°38'1 1.6
2017-Sep-24 03:30N 37°56' E 023°37'1 2.8
2017-Sep-24 03:00N 37°55' E 023°37'611.2
2017-Sep-24 02:31N 37°50' E 023°40'714.6
2017-Sep-24 02:01N 37°43' E 023°44'714.4
2017-Sep-24 01:30N 37°37' E 023°47'  
2017-Sep-20 16:06N 35°36' E 024°25'215.1
2017-Sep-20 15:58N 35°35' E 024°23'915.6
2017-Sep-20 15:24N 35°30' E 024°13'1 0.1
2017-Sep-20 03:39N 35°30' E 024°13'410.6
2017-Sep-20 03:18N 35°34' E 024°15'310.7
2017-Sep-20 03:00N 35°37' E 024°16'610.4
2017-Sep-20 02:28N 35°42' E 024°18'5 9.9
2017-Sep-20 02:00N 35°46' E 024°20'5 9.9
2017-Sep-20 01:30N 35°51' E 024°22'5 9.9
2017-Sep-20 01:00N 35°55' E 024°25'5 9.2
2017-Sep-20 00:27N 36°01' E 024°24'510.3
2017-Sep-20 00:00N 36°03' E 024°20'4 7.9
2017-Sep-19 23:30N 36°06' E 024°22'5 9.4
2017-Sep-19 23:00N 36°05' E 024°28'5 9.3
2017-Sep-19 22:25N 36°04' E 024°34'4 9.1
2017-Sep-19 22:00N 36°03' E 024°39'4 7.9
2017-Sep-19 21:30N 36°05' E 024°43'20 8.2
2017-Sep-19 19:02N 36°24' E 024°38'0 9.8
2017-Sep-19 19:00N 36°25' E 024°38'5 9.9
2017-Sep-19 18:29N 36°30' E 024°40'510.2
2017-Sep-19 18:00N 36°34' E 024°41'1110.4
2017-Sep-19 16:59N 36°44' E 024°46'510.9
2017-Sep-19 16:30N 36°49' E 024°49'1810.8
2017-Sep-19 14:50N 37°06' E 024°56'411.0
2017-Sep-19 14:30N 37°09' E 024°58'611.2
2017-Sep-19 14:00N 37°14' E 025°02'611.0
2017-Sep-19 13:28N 37°19' E 025°06'511.0
2017-Sep-19 13:00N 37°24' E 025°09'510.8
2017-Sep-19 12:30N 37°28' E 025°13'5 9.0
2017-Sep-19 11:59N 37°27' E 025°19'0 0.0
2017-Sep-19 11:29N 37°27' E 025°19'0 0.0
2017-Sep-19 10:59N 37°27' E 025°19'0 0.1
2017-Sep-19 10:29N 37°27' E 025°19'0 0.0
2017-Sep-19 09:44N 37°27' E 025°19'0 0.0
2017-Sep-19 09:29N 37°27' E 025°19'0 0.0
2017-Sep-19 08:59N 37°27' E 025°19'0 0.0
2017-Sep-19 08:29N 37°27' E 025°19'0 0.0
2017-Sep-19 07:59N 37°27' E 025°19'0 0.0
2017-Sep-19 07:29N 37°27' E 025°19'0 0.0
2017-Sep-19 06:59N 37°27' E 025°19'0 0.0
2017-Sep-19 06:23N 37°27' E 025°19'0 0.0
2017-Sep-19 05:59N 37°27' E 025°19'0 0.0
2017-Sep-19 05:29N 37°27' E 025°19'0 0.0
2017-Sep-19 04:59N 37°27' E 025°19'0 0.0
2017-Sep-19 04:29N 37°27' E 025°19'0 0.0
2017-Sep-19 03:59N 37°27' E 025°19'0 0.0
2017-Sep-19 03:29N 37°27' E 025°19'0 0.0
2017-Sep-19 02:59N 37°27' E 025°19'0 0.0
2017-Sep-19 02:29N 37°27' E 025°19'0 0.0
2017-Sep-19 01:59N 37°27' E 025°19'0 0.0
2017-Sep-19 01:26N 37°27' E 025°19'0 0.0
2017-Sep-19 00:59N 37°27' E 025°19'0 0.0
2017-Sep-19 00:29N 37°27' E 025°19'0 0.0
2017-Sep-18 23:59N 37°27' E 025°19'0 0.0
2017-Sep-18 23:29N 37°27' E 025°19'0 0.0
2017-Sep-18 22:59N 37°27' E 025°19'0 0.0
2017-Sep-18 22:29N 37°27' E 025°19'0 0.0
2017-Sep-18 21:56N 37°27' E 025°19'0 0.0
2017-Sep-18 21:29N 37°27' E 025°19'0 0.0
2017-Sep-18 20:59N 37°27' E 025°19'0 0.0
2017-Sep-18 20:29N 37°27' E 025°19'0 0.0
2017-Sep-18 19:53N 37°27' E 025°19'0 0.0
2017-Sep-18 19:26N 37°27' E 025°19'0 0.0
2017-Sep-18 18:56N 37°27' E 025°19'0 0.0
2017-Sep-18 18:29N 37°27' E 025°19'0 0.0
2017-Sep-18 17:59N 37°27' E 025°19'0 0.0
2017-Sep-18 17:29N 37°27' E 025°19'0 0.0
2017-Sep-18 16:56N 37°27' E 025°19'0 0.0
2017-Sep-18 16:20N 37°27' E 025°19'0 0.0
2017-Sep-18 15:59N 37°27' E 025°19'0 0.0
2017-Sep-18 15:29N 37°27' E 025°19'0 0.0
2017-Sep-18 14:59N 37°27' E 025°19'0 0.0
2017-Sep-18 14:29N 37°27' E 025°19'0 0.3
2017-Sep-18 14:00N 37°27' E 025°19'1 1.2
2017-Sep-18 13:29N 37°28' E 025°19'0 0.0
2017-Sep-18 12:56N 37°28' E 025°19'0 0.0
2017-Sep-18 12:29N 37°28' E 025°19'0 0.0
2017-Sep-18 11:59N 37°28' E 025°19'0 0.0
2017-Sep-18 11:29N 37°28' E 025°19'0 0.0
2017-Sep-18 10:59N 37°28' E 025°19'0 0.0
2017-Sep-18 10:29N 37°28' E 025°19'0 0.0
2017-Sep-18 09:59N 37°28' E 025°19'0 0.0
2017-Sep-18 09:29N 37°28' E 025°19'0 0.0
2017-Sep-18 08:59N 37°28' E 025°19'0 0.0
2017-Sep-18 08:26N 37°28' E 025°19'0 0.0
2017-Sep-18 07:56N 37°28' E 025°19'0 0.0
2017-Sep-18 07:29N 37°28' E 025°19'0 0.0
2017-Sep-18 06:59N 37°28' E 025°19'0 0.0
2017-Sep-18 06:29N 37°28' E 025°19'0 0.0
2017-Sep-18 05:59N 37°28' E 025°19'0 0.4
2017-Sep-18 05:30N 37°28' E 025°19'611.6
2017-Sep-18 05:00N 37°27' E 025°12'714.8
2017-Sep-18 04:30N 37°20' E 025°08'611.1
2017-Sep-18 04:00N 37°18' E 025°02'714.1
2017-Sep-18 03:30N 37°14' E 024°55'3814.1
2017-Sep-18 00:48N 37°01' E 024°10'413.2
2017-Sep-18 00:29N 37°04' E 024°06'612.0
2017-Sep-17 23:59N 37°02' E 023°59'612.8
2017-Sep-17 23:31N 37°05' E 023°52'612.3
2017-Sep-17 23:01N 37°11' E 023°52'714.6
2017-Sep-17 22:31N 37°18' E 023°50'815.3
2017-Sep-17 22:00N 37°26' E 023°49'815.6
2017-Sep-17 21:31N 37°33' E 023°45'815.5
2017-Sep-17 21:00N 37°40' E 023°42'815.6
2017-Sep-17 20:30N 37°47' E 023°38'815.2
2017-Sep-17 20:01N 37°55' E 023°36'2 4.0
2017-Sep-17 19:29N 37°56' E 023°38'0 0.0
2017-Sep-17 18:59N 37°56' E 023°38'0 0.0
2017-Sep-17 18:29N 37°56' E 023°38'0 0.0
2017-Sep-17 17:59N 37°56' E 023°38'0 0.0
2017-Sep-17 17:29N 37°56' E 023°38'0 0.0
2017-Sep-17 16:59N 37°56' E 023°38'0 0.0
2017-Sep-17 16:29N 37°56' E 023°38'0 0.0
2017-Sep-17 15:59N 37°56' E 023°38'0 0.0
2017-Sep-17 15:29N 37°56' E 023°38'0 0.0
2017-Sep-17 14:56N 37°56' E 023°38'0 0.0
2017-Sep-17 14:29N 37°56' E 023°38'0 0.0
2017-Sep-17 13:59N 37°56' E 023°38'0 0.0
2017-Sep-17 13:29N 37°56' E 023°38'0 0.0
2017-Sep-17 12:59N 37°56' E 023°38'0 0.0
2017-Sep-17 12:29N 37°56' E 023°38'0 0.0
2017-Sep-17 11:59N 37°56' E 023°38'0 0.0
2017-Sep-17 11:29N 37°56' E 023°38'0 0.0
2017-Sep-17 10:59N 37°56' E 023°38'0 0.0
2017-Sep-17 10:29N 37°56' E 023°38'0 0.0
2017-Sep-17 09:59N 37°56' E 023°38'0 0.0
2017-Sep-17 09:29N 37°56' E 023°38'0 0.0
2017-Sep-17 08:56N 37°56' E 023°38'0 0.0
2017-Sep-17 08:29N 37°56' E 023°38'0 0.0
2017-Sep-17 07:59N 37°56' E 023°38'0 0.0
2017-Sep-17 07:29N 37°56' E 023°38'0 0.0
2017-Sep-17 06:59N 37°56' E 023°38'0 0.0
2017-Sep-17 06:29N 37°56' E 023°38'0 0.0
2017-Sep-17 05:59N 37°56' E 023°38'0 0.0
2017-Sep-17 05:29N 37°56' E 023°38'0 0.0
2017-Sep-17 04:59N 37°56' E 023°38'0 0.0
2017-Sep-17 04:29N 37°56' E 023°38'0 0.0
2017-Sep-17 03:59N 37°56' E 023°38'1 2.1
2017-Sep-17 03:30N 37°56' E 023°37'1 2.2
2017-Sep-17 03:00N 37°55' E 023°37'815.1
2017-Sep-17 02:30N 37°48' E 023°41'917.3
2017-Sep-17 02:00N 37°40' E 023°46'918.1
2017-Sep-17 01:30N 37°32' E 023°48'815.4
2017-Sep-17 01:00N 37°24' E 023°50'815.8
2017-Sep-17 00:31N 37°16' E 023°51'815.7
2017-Sep-17 00:00N 37°09' E 023°56'815.9
2017-Sep-16 23:31N 37°02' E 024°01'2415.6
2017-Sep-16 21:56N 36°39' E 024°09'  
Track history (hours):
 
Tides and Currents Weather Stations Pressure Air Temp Water Temp Dewpoint Dewpoint Depression Visibility Wind Speed Wind Dir Waves Ship Positions

Horizon

Last reported at 2017-Sep-25 13:25 UTC. Time now 2017-Sep-25 13:45 UTC.
Position N 37°27' E 025°19'.

Length 207 m; draft 7.7 m.

Type: Passenger vessel. MMSI: 249727000.

Date/timePositionNaut miles runAvg speedWind from/ knotsBaromVisibWave heightAir tempDewpointWater temp
2017-Sep-25 13:25N 37°27' E 025°19'0 0.0
2017-Sep-25 12:55N 37°27' E 025°19'0 0.0
2017-Sep-25 12:25N 37°27' E 025°19'0 0.0
2017-Sep-25 11:55N 37°27' E 025°19'0 0.0
2017-Sep-25 11:25N 37°27' E 025°19'0 0.0
2017-Sep-25 10:55N 37°27' E 025°19'0 0.0
2017-Sep-25 10:25N 37°27' E 025°19'0 0.0
2017-Sep-25 09:55N 37°27' E 025°19'0 0.0
2017-Sep-25 09:25N 37°27' E 025°19'0 0.0
2017-Sep-25 08:55N 37°27' E 025°19'0 0.0
2017-Sep-25 08:27N 37°27' E 025°19'0 0.0
2017-Sep-25 07:55N 37°27' E 025°19'0 0.0
2017-Sep-25 07:25N 37°27' E 025°19'0 0.0
2017-Sep-25 06:55N 37°27' E 025°19'0 0.0
2017-Sep-25 06:25N 37°27' E 025°19'0 0.0
2017-Sep-25 05:55N 37°27' E 025°19'0 0.1
2017-Sep-25 05:25N 37°27' E 025°19'1 2.0
2017-Sep-25 05:00N 37°27' E 025°18'713.4
2017-Sep-25 04:30N 37°27' E 025°10'714.6
2017-Sep-25 04:00N 37°20' E 025°07'815.4
2017-Sep-25 03:30N 37°16' E 024°58'815.6
2017-Sep-25 03:00N 37°12' E 024°50'55 9.9
2017-Sep-24 21:25N 37°32' E 023°45'715.7
2017-Sep-24 21:00N 37°39' E 023°43'815.9
2017-Sep-24 20:30N 37°46' E 023°39'815.3
2017-Sep-24 20:00N 37°53' E 023°37'3 6.3
2017-Sep-24 19:30N 37°56' E 023°38'0 0.0
2017-Sep-24 19:00N 37°56' E 023°38'0 0.0
2017-Sep-24 18:30N 37°56' E 023°38'0 0.0
2017-Sep-24 17:57N 37°56' E 023°38'0 0.0
2017-Sep-24 17:30N 37°56' E 023°38'0 0.0
2017-Sep-24 17:00N 37°56' E 023°38'0 0.0
2017-Sep-24 16:30N 37°56' E 023°38'0 0.0
2017-Sep-24 16:00N 37°56' E 023°38'0 0.0
2017-Sep-24 15:30N 37°56' E 023°38'0 0.0
2017-Sep-24 15:00N 37°56' E 023°38'0 0.0
2017-Sep-24 14:30N 37°56' E 023°38'0 0.0
2017-Sep-24 14:00N 37°56' E 023°38'0 0.0
2017-Sep-24 13:30N 37°56' E 023°38'0 0.0
2017-Sep-24 13:00N 37°56' E 023°38'0 0.0
2017-Sep-24 12:30N 37°56' E 023°38'0 0.0
2017-Sep-24 12:00N 37°56' E 023°38'0 0.0
2017-Sep-24 11:30N 37°56' E 023°38'0 0.0
2017-Sep-24 11:00N 37°56' E 023°38'0 0.0
2017-Sep-24 10:30N 37°56' E 023°38'0 0.0
2017-Sep-24 10:00N 37°56' E 023°38'0 0.0
2017-Sep-24 09:30N 37°56' E 023°38'0 0.0
2017-Sep-24 09:00N 37°56' E 023°38'0 0.0
2017-Sep-24 08:30N 37°56' E 023°38'0 0.0
2017-Sep-24 08:00N 37°56' E 023°38'0 0.0
2017-Sep-24 07:30N 37°56' E 023°38'0 0.0
2017-Sep-24 07:00N 37°56' E 023°38'0 0.0
2017-Sep-24 06:30N 37°56' E 023°38'0 0.0
2017-Sep-24 06:00N 37°56' E 023°38'0 0.0
2017-Sep-24 05:30N 37°56' E 023°38'0 0.0
2017-Sep-24 05:00N 37°56' E 023°38'0 0.0
2017-Sep-24 04:27N 37°56' E 023°38'0 0.0
2017-Sep-24 04:00N 37°56' E 023°38'1 1.6
2017-Sep-24 03:30N 37°56' E 023°37'1 2.8
2017-Sep-24 03:00N 37°55' E 023°37'611.2
2017-Sep-24 02:31N 37°50' E 023°40'714.6
2017-Sep-24 02:01N 37°43' E 023°44'714.4
2017-Sep-24 01:30N 37°37' E 023°47'  
2017-Sep-20 16:06N 35°36' E 024°25'215.1
2017-Sep-20 15:58N 35°35' E 024°23'915.6
2017-Sep-20 15:24N 35°30' E 024°13'1 0.1
2017-Sep-20 03:39N 35°30' E 024°13'410.6
2017-Sep-20 03:18N 35°34' E 024°15'310.7
2017-Sep-20 03:00N 35°37' E 024°16'610.4
2017-Sep-20 02:28N 35°42' E 024°18'5 9.9
2017-Sep-20 02:00N 35°46' E 024°20'5 9.9
2017-Sep-20 01:30N 35°51' E 024°22'5 9.9
2017-Sep-20 01:00N 35°55' E 024°25'5 9.2
2017-Sep-20 00:27N 36°01' E 024°24'510.3
2017-Sep-20 00:00N 36°03' E 024°20'4 7.9
2017-Sep-19 23:30N 36°06' E 024°22'5 9.4
2017-Sep-19 23:00N 36°05' E 024°28'5 9.3
2017-Sep-19 22:25N 36°04' E 024°34'4 9.1
2017-Sep-19 22:00N 36°03' E 024°39'4 7.9
2017-Sep-19 21:30N 36°05' E 024°43'20 8.2
2017-Sep-19 19:02N 36°24' E 024°38'0 9.8
2017-Sep-19 19:00N 36°25' E 024°38'5 9.9
2017-Sep-19 18:29N 36°30' E 024°40'510.2
2017-Sep-19 18:00N 36°34' E 024°41'1110.4
2017-Sep-19 16:59N 36°44' E 024°46'510.9
2017-Sep-19 16:30N 36°49' E 024°49'1810.8
2017-Sep-19 14:50N 37°06' E 024°56'411.0
2017-Sep-19 14:30N 37°09' E 024°58'611.2
2017-Sep-19 14:00N 37°14' E 025°02'611.0
2017-Sep-19 13:28N 37°19' E 025°06'511.0
2017-Sep-19 13:00N 37°24' E 025°09'510.8
2017-Sep-19 12:30N 37°28' E 025°13'5 9.0
2017-Sep-19 11:59N 37°27' E 025°19'0 0.0
2017-Sep-19 11:29N 37°27' E 025°19'0 0.0
2017-Sep-19 10:59N 37°27' E 025°19'0 0.1
2017-Sep-19 10:29N 37°27' E 025°19'0 0.0
2017-Sep-19 09:44N 37°27' E 025°19'0 0.0
2017-Sep-19 09:29N 37°27' E 025°19'0 0.0
2017-Sep-19 08:59N 37°27' E 025°19'0 0.0
2017-Sep-19 08:29N 37°27' E 025°19'0 0.0
2017-Sep-19 07:59N 37°27' E 025°19'0 0.0
2017-Sep-19 07:29N 37°27' E 025°19'0 0.0
2017-Sep-19 06:59N 37°27' E 025°19'0 0.0
2017-Sep-19 06:23N 37°27' E 025°19'0 0.0
2017-Sep-19 05:59N 37°27' E 025°19'0 0.0
2017-Sep-19 05:29N 37°27' E 025°19'0 0.0
2017-Sep-19 04:59N 37°27' E 025°19'0 0.0
2017-Sep-19 04:29N 37°27' E 025°19'0 0.0
2017-Sep-19 03:59N 37°27' E 025°19'0 0.0
2017-Sep-19 03:29N 37°27' E 025°19'0 0.0
2017-Sep-19 02:59N 37°27' E 025°19'0 0.0
2017-Sep-19 02:29N 37°27' E 025°19'0 0.0
2017-Sep-19 01:59N 37°27' E 025°19'0 0.0
2017-Sep-19 01:26N 37°27' E 025°19'0 0.0
2017-Sep-19 00:59N 37°27' E 025°19'0 0.0
2017-Sep-19 00:29N 37°27' E 025°19'0 0.0
2017-Sep-18 23:59N 37°27' E 025°19'0 0.0
2017-Sep-18 23:29N 37°27' E 025°19'0 0.0
2017-Sep-18 22:59N 37°27' E 025°19'0 0.0
2017-Sep-18 22:29N 37°27' E 025°19'0 0.0
2017-Sep-18 21:56N 37°27' E 025°19'0 0.0
2017-Sep-18 21:29N 37°27' E 025°19'0 0.0
2017-Sep-18 20:59N 37°27' E 025°19'0 0.0
2017-Sep-18 20:29N 37°27' E 025°19'0 0.0
2017-Sep-18 19:53N 37°27' E 025°19'0 0.0
2017-Sep-18 19:26N 37°27' E 025°19'0 0.0
2017-Sep-18 18:56N 37°27' E 025°19'0 0.0
2017-Sep-18 18:29N 37°27' E 025°19'0 0.0
2017-Sep-18 17:59N 37°27' E 025°19'0 0.0
2017-Sep-18 17:29N 37°27' E 025°19'0 0.0
2017-Sep-18 16:56N 37°27' E 025°19'0 0.0
2017-Sep-18 16:20N 37°27' E 025°19'0 0.0
2017-Sep-18 15:59N 37°27' E 025°19'0 0.0
2017-Sep-18 15:29N 37°27' E 025°19'0 0.0
2017-Sep-18 14:59N 37°27' E 025°19'0 0.0
2017-Sep-18 14:29N 37°27' E 025°19'0 0.3
2017-Sep-18 14:00N 37°27' E 025°19'1 1.2
2017-Sep-18 13:29N 37°28' E 025°19'0 0.0
2017-Sep-18 12:56N 37°28' E 025°19'0 0.0
2017-Sep-18 12:29N 37°28' E 025°19'0 0.0
2017-Sep-18 11:59N 37°28' E 025°19'0 0.0
2017-Sep-18 11:29N 37°28' E 025°19'0 0.0
2017-Sep-18 10:59N 37°28' E 025°19'0 0.0
2017-Sep-18 10:29N 37°28' E 025°19'0 0.0
2017-Sep-18 09:59N 37°28' E 025°19'0 0.0
2017-Sep-18 09:29N 37°28' E 025°19'0 0.0
2017-Sep-18 08:59N 37°28' E 025°19'0 0.0
2017-Sep-18 08:26N 37°28' E 025°19'0 0.0
2017-Sep-18 07:56N 37°28' E 025°19'0 0.0
2017-Sep-18 07:29N 37°28' E 025°19'0 0.0
2017-Sep-18 06:59N 37°28' E 025°19'0 0.0
2017-Sep-18 06:29N 37°28' E 025°19'0 0.0
2017-Sep-18 05:59N 37°28' E 025°19'0 0.4
2017-Sep-18 05:30N 37°28' E 025°19'611.6
2017-Sep-18 05:00N 37°27' E 025°12'714.8
2017-Sep-18 04:30N 37°20' E 025°08'611.1
2017-Sep-18 04:00N 37°18' E 025°02'714.1
2017-Sep-18 03:30N 37°14' E 024°55'3814.1
2017-Sep-18 00:48N 37°01' E 024°10'413.2
2017-Sep-18 00:29N 37°04' E 024°06'612.0
2017-Sep-17 23:59N 37°02' E 023°59'612.8
2017-Sep-17 23:31N 37°05' E 023°52'612.3
2017-Sep-17 23:01N 37°11' E 023°52'714.6
2017-Sep-17 22:31N 37°18' E 023°50'815.3
2017-Sep-17 22:00N 37°26' E 023°49'815.6
2017-Sep-17 21:31N 37°33' E 023°45'815.5
2017-Sep-17 21:00N 37°40' E 023°42'815.6
2017-Sep-17 20:30N 37°47' E 023°38'815.2
2017-Sep-17 20:01N 37°55' E 023°36'2 4.0
2017-Sep-17 19:29N 37°56' E 023°38'0 0.0
2017-Sep-17 18:59N 37°56' E 023°38'0 0.0
2017-Sep-17 18:29N 37°56' E 023°38'0 0.0
2017-Sep-17 17:59N 37°56' E 023°38'0 0.0
2017-Sep-17 17:29N 37°56' E 023°38'0 0.0
2017-Sep-17 16:59N 37°56' E 023°38'0 0.0
2017-Sep-17 16:29N 37°56' E 023°38'0 0.0
2017-Sep-17 15:59N 37°56' E 023°38'0 0.0
2017-Sep-17 15:29N 37°56' E 023°38'0 0.0
2017-Sep-17 14:56N 37°56' E 023°38'0 0.0
2017-Sep-17 14:29N 37°56' E 023°38'0 0.0
2017-Sep-17 13:59N 37°56' E 023°38'0 0.0
2017-Sep-17 13:29N 37°56' E 023°38'0 0.0
2017-Sep-17 12:59N 37°56' E 023°38'0 0.0
2017-Sep-17 12:29N 37°56' E 023°38'0 0.0
2017-Sep-17 11:59N 37°56' E 023°38'0 0.0
2017-Sep-17 11:29N 37°56' E 023°38'0 0.0
2017-Sep-17 10:59N 37°56' E 023°38'0 0.0
2017-Sep-17 10:29N 37°56' E 023°38'0 0.0
2017-Sep-17 09:59N 37°56' E 023°38'0 0.0
2017-Sep-17 09:29N 37°56' E 023°38'0 0.0
2017-Sep-17 08:56N 37°56' E 023°38'0 0.0
2017-Sep-17 08:29N 37°56' E 023°38'0 0.0
2017-Sep-17 07:59N 37°56' E 023°38'0 0.0
2017-Sep-17 07:29N 37°56' E 023°38'0 0.0
2017-Sep-17 06:59N 37°56' E 023°38'0 0.0
2017-Sep-17 06:29N 37°56' E 023°38'0 0.0
2017-Sep-17 05:59N 37°56' E 023°38'0 0.0
2017-Sep-17 05:29N 37°56' E 023°38'0 0.0
2017-Sep-17 04:59N 37°56' E 023°38'0 0.0
2017-Sep-17 04:29N 37°56' E 023°38'0 0.0
2017-Sep-17 03:59N 37°56' E 023°38'1 2.1
2017-Sep-17 03:30N 37°56' E 023°37'1 2.2
2017-Sep-17 03:00N 37°55' E 023°37'815.1
2017-Sep-17 02:30N 37°48' E 023°41'917.3
2017-Sep-17 02:00N 37°40' E 023°46'918.1
2017-Sep-17 01:30N 37°32' E 023°48'815.4
2017-Sep-17 01:00N 37°24' E 023°50'815.8
2017-Sep-17 00:31N 37°16' E 023°51'815.7
2017-Sep-17 00:00N 37°09' E 023°56'815.9
2017-Sep-16 23:31N 37°02' E 024°01'2415.6
2017-Sep-16 21:56N 36°39' E 024°09'  

Dump ship's entire track history